createdAt,value
2018-03-28T00:02:24.079Z,7.30
2018-03-28T00:04:52.334Z,7.30
2018-03-28T00:07:20.590Z,7.30
2018-03-28T00:09:48.918Z,7.30
2018-03-28T00:12:17.177Z,7.20
2018-03-28T00:14:45.487Z,7.20
2018-03-28T00:17:13.731Z,7.20
2018-03-28T00:19:42.059Z,7.30
2018-03-28T00:22:10.306Z,7.30
2018-03-28T00:24:38.581Z,7.30
2018-03-28T00:27:06.831Z,7.30
2018-03-28T00:29:35.105Z,7.40
2018-03-28T00:32:03.342Z,7.40
2018-03-28T00:34:31.600Z,7.40
2018-03-28T00:36:59.906Z,7.50
2018-03-28T00:39:28.174Z,7.50
2018-03-28T00:41:56.481Z,7.50
2018-03-28T00:44:24.747Z,7.50
2018-03-28T00:46:53.010Z,7.50
2018-03-28T00:49:21.325Z,7.40
2018-03-28T00:51:49.562Z,7.40
2018-03-28T00:54:18.715Z,7.40
2018-03-28T00:56:47.024Z,7.40
2018-03-28T00:59:15.272Z,7.40
2018-03-28T01:01:43.557Z,7.40
2018-03-28T01:04:11.824Z,7.50
2018-03-28T01:06:40.106Z,7.40
2018-03-28T01:09:08.378Z,7.40
2018-03-28T01:11:36.690Z,7.40
2018-03-28T01:14:04.974Z,7.40
2018-03-28T01:16:33.225Z,7.50
2018-03-28T01:19:01.489Z,7.50
2018-03-28T01:21:30.633Z,7.50
2018-03-28T01:23:59.095Z,7.50
2018-03-28T01:26:27.377Z,7.50
2018-03-28T01:28:55.638Z,7.50
2018-03-28T01:31:23.946Z,7.50
2018-03-28T01:33:52.203Z,7.50
2018-03-28T01:36:20.496Z,7.60
2018-03-28T01:38:48.786Z,7.60
2018-03-28T01:41:17.088Z,7.50
2018-03-28T01:43:45.342Z,7.50
2018-03-28T01:46:13.595Z,7.50
2018-03-28T01:48:41.859Z,7.50
2018-03-28T01:51:10.886Z,7.50
2018-03-28T01:53:39.148Z,7.50
2018-03-28T01:56:07.403Z,7.60
2018-03-28T01:58:35.664Z,7.60
2018-03-28T02:01:03.955Z,7.60
2018-03-28T02:03:32.200Z,7.60
2018-03-28T02:06:00.454Z,7.60
2018-03-28T02:08:28.761Z,7.60
2018-03-28T02:10:57.006Z,7.60
2018-03-28T02:13:25.318Z,7.60
2018-03-28T02:15:53.570Z,7.60
2018-03-28T02:18:21.878Z,7.60
2018-03-28T02:20:50.198Z,7.70
2018-03-28T02:23:18.457Z,7.60
2018-03-28T02:25:46.713Z,7.60
2018-03-28T02:28:15.007Z,7.70
2018-03-28T02:30:43.274Z,7.70
2018-03-28T02:33:11.516Z,7.70
2018-03-28T02:35:40.541Z,7.70
2018-03-28T02:38:08.837Z,7.70
2018-03-28T02:40:37.149Z,7.60
2018-03-28T02:43:05.417Z,7.70
2018-03-28T02:45:33.698Z,7.70
2018-03-28T02:48:01.948Z,7.70
2018-03-28T02:50:30.201Z,7.80
2018-03-28T02:52:59.211Z,7.80
2018-03-28T02:55:27.471Z,7.80
2018-03-28T02:57:56.485Z,7.90
2018-03-28T03:00:25.515Z,7.90
2018-03-28T03:02:53.762Z,7.90
2018-03-28T03:05:22.798Z,7.90
2018-03-28T03:07:51.051Z,7.90
2018-03-28T03:10:20.079Z,7.90
2018-03-28T03:12:48.334Z,7.90
2018-03-28T03:15:16.597Z,8.00
2018-03-28T03:17:45.631Z,8.00
2018-03-28T03:20:13.922Z,8.00
2018-03-28T03:22:42.167Z,8.10
2018-03-28T03:25:11.199Z,8.00
2018-03-28T03:27:39.443Z,8.00
2018-03-28T03:30:08.467Z,8.00
2018-03-28T03:32:36.727Z,8.00
2018-03-28T03:35:05.764Z,8.00
2018-03-28T03:37:34.042Z,8.00
2018-03-28T03:40:02.346Z,8.00
2018-03-28T03:42:31.404Z,7.90
2018-03-28T03:44:59.662Z,7.90
2018-03-28T03:47:27.918Z,7.90
2018-03-28T03:49:56.942Z,7.90
2018-03-28T03:52:25.207Z,7.90
2018-03-28T03:54:53.561Z,7.80
2018-03-28T03:57:22.622Z,7.90
2018-03-28T03:59:50.890Z,7.90
2018-03-28T04:02:19.145Z,7.90
2018-03-28T04:04:47.403Z,7.90
2018-03-28T04:07:16.621Z,7.90
2018-03-28T04:09:44.903Z,7.90
2018-03-28T04:12:13.156Z,8.00
2018-03-28T04:14:41.494Z,8.00
2018-03-28T04:17:09.776Z,8.00
2018-03-28T04:19:38.058Z,7.90
2018-03-28T04:22:06.305Z,8.00
2018-03-28T04:24:35.342Z,8.00
2018-03-28T04:27:03.623Z,8.00
2018-03-28T04:29:31.880Z,8.00
2018-03-28T04:32:00.129Z,8.00
2018-03-28T04:34:29.905Z,8.00
2018-03-28T04:36:58.188Z,8.00
2018-03-28T04:39:26.471Z,8.00
2018-03-28T04:41:54.724Z,8.00
2018-03-28T04:44:23.041Z,8.00
2018-03-28T04:46:51.278Z,8.00
2018-03-28T04:49:20.322Z,8.10
2018-03-28T04:51:48.563Z,8.10
2018-03-28T04:54:16.844Z,8.00
2018-03-28T04:56:45.111Z,8.10
2018-03-28T04:59:15.272Z,8.00
2018-03-28T05:01:44.970Z,8.00
2018-03-28T05:04:13.308Z,7.90
2018-03-28T05:06:41.569Z,7.90
2018-03-28T05:09:09.844Z,7.90
2018-03-28T05:11:38.090Z,8.00
2018-03-28T05:14:06.346Z,8.00
2018-03-28T05:16:35.389Z,8.00
2018-03-28T05:19:03.664Z,8.00
2018-03-28T05:21:31.995Z,8.00
2018-03-28T05:24:00.262Z,8.00
2018-03-28T05:26:28.525Z,8.10
2018-03-28T05:28:57.203Z,8.10
2018-03-28T05:31:25.472Z,8.10
2018-03-28T05:33:53.718Z,8.10
2018-03-28T05:36:22.060Z,8.10
2018-03-28T05:38:50.307Z,8.10
2018-03-28T05:41:19.339Z,8.20
2018-03-28T05:43:47.639Z,8.30
2018-03-28T05:46:15.903Z,8.30
2018-03-28T05:48:44.155Z,8.20
2018-03-28T05:51:12.414Z,8.30
2018-03-28T05:53:40.679Z,8.30
2018-03-28T05:56:08.929Z,8.30
2018-03-28T05:58:37.211Z,8.30
2018-03-28T06:01:05.469Z,8.30
2018-03-28T06:03:33.722Z,8.40
2018-03-28T06:06:02.047Z,8.40
2018-03-28T06:08:30.308Z,8.40
2018-03-28T06:10:58.634Z,8.40
2018-03-28T06:13:26.889Z,8.40
2018-03-28T06:15:55.167Z,8.50
2018-03-28T06:18:23.433Z,8.50
2018-03-28T06:20:52.777Z,8.50
2018-03-28T06:23:21.050Z,8.50
2018-03-28T06:25:49.414Z,8.60
2018-03-28T06:28:17.658Z,8.60
2018-03-28T06:30:46.682Z,8.70
2018-03-28T06:33:14.986Z,8.60
2018-03-28T06:35:43.967Z,8.60
2018-03-28T06:38:12.210Z,8.60
2018-03-28T06:40:40.541Z,8.70
2018-03-28T06:43:08.791Z,8.70
2018-03-28T06:45:37.832Z,8.70
2018-03-28T06:48:06.082Z,8.70
2018-03-28T06:50:34.358Z,8.80
2018-03-28T06:53:03.220Z,8.80
2018-03-28T06:55:31.640Z,8.80
2018-03-28T06:57:59.939Z,8.90
2018-03-28T07:00:28.241Z,8.90
2018-03-28T07:02:56.526Z,8.90
2018-03-28T07:05:24.787Z,8.90
2018-03-28T07:07:53.033Z,9.00
2018-03-28T07:10:22.074Z,9.00
2018-03-28T07:12:50.317Z,8.90
2018-03-28T07:15:18.592Z,9.00
2018-03-28T07:17:47.598Z,9.00
2018-03-28T07:20:16.586Z,9.00
2018-03-28T07:22:45.600Z,9.00
2018-03-28T07:25:13.863Z,9.10
2018-03-28T07:27:42.890Z,9.10
2018-03-28T07:30:11.135Z,9.00
2018-03-28T07:32:40.162Z,9.10
2018-03-28T07:35:08.453Z,9.10
2018-03-28T07:37:36.697Z,9.10
2018-03-28T07:40:05.728Z,9.10
2018-03-28T07:42:33.985Z,9.10
2018-03-28T07:45:02.263Z,9.20
2018-03-28T07:47:31.271Z,9.20
2018-03-28T07:50:00.026Z,9.10
2018-03-28T07:52:28.367Z,9.20
2018-03-28T07:54:56.643Z,9.30
2018-03-28T07:57:24.936Z,9.40
2018-03-28T07:59:53.194Z,9.40
2018-03-28T08:02:21.434Z,9.40
2018-03-28T08:04:49.698Z,9.40
2018-03-28T08:07:18.055Z,9.40
2018-03-28T08:09:46.294Z,9.50
2018-03-28T08:12:15.330Z,9.50
2018-03-28T08:14:43.579Z,9.50
2018-03-28T08:17:12.595Z,9.60
2018-03-28T08:19:40.837Z,9.60
2018-03-28T08:22:09.091Z,9.60
2018-03-28T08:24:37.374Z,9.60
2018-03-28T08:27:05.641Z,9.60
2018-03-28T08:29:33.870Z,9.60
2018-03-28T08:32:03.636Z,9.60
2018-03-28T08:34:31.898Z,9.60
2018-03-28T08:37:00.162Z,9.70
2018-03-28T08:39:29.207Z,9.80
2018-03-28T08:41:57.471Z,9.80
2018-03-28T08:44:25.770Z,9.80
2018-03-28T08:46:54.042Z,9.80
2018-03-28T08:49:22.279Z,9.80
2018-03-28T08:51:51.328Z,9.90
2018-03-28T08:54:19.606Z,9.90
2018-03-28T08:56:47.858Z,9.90
2018-03-28T08:59:16.101Z,9.90
2018-03-28T09:01:45.867Z,9.90
2018-03-28T09:04:14.180Z,9.90
2018-03-28T09:06:42.500Z,9.90
2018-03-28T09:09:10.727Z,9.90
2018-03-28T09:11:39.020Z,10.00
2018-03-28T09:14:07.240Z,10.00
2018-03-28T09:16:35.503Z,9.90
2018-03-28T09:19:03.775Z,9.90
2018-03-28T09:21:32.046Z,10.00
2018-03-28T09:24:00.287Z,10.00
2018-03-28T09:26:28.533Z,9.90
2018-03-28T09:28:56.782Z,10.00
2018-03-28T09:31:25.060Z,10.00
2018-03-28T09:33:53.314Z,10.00
2018-03-28T09:36:21.599Z,10.10
2018-03-28T09:38:49.847Z,10.10
2018-03-28T09:41:23.849Z,10.10
2018-03-28T09:43:52.125Z,10.20
2018-03-28T09:46:21.159Z,10.10
2018-03-28T09:48:49.405Z,10.10
2018-03-28T09:51:18.428Z,10.20
2018-03-28T09:53:46.715Z,10.20
2018-03-28T09:56:14.975Z,10.20
2018-03-28T09:58:43.223Z,10.10
2018-03-28T10:01:11.484Z,10.00
2018-03-28T10:03:53.574Z,10.00
2018-03-28T10:06:21.860Z,10.00
2018-03-28T10:08:50.123Z,10.20
2018-03-28T10:11:18.528Z,10.10
2018-03-28T10:13:47.337Z,10.20
2018-03-28T10:16:16.599Z,10.20
2018-03-28T10:18:44.906Z,10.20
2018-03-28T10:21:13.274Z,10.20
2018-03-28T10:23:41.756Z,10.20
2018-03-28T10:26:10.142Z,10.10
2018-03-28T10:28:38.423Z,10.10
2018-03-28T10:31:06.701Z,10.10
2018-03-28T10:33:34.945Z,10.00
2018-03-28T10:36:03.977Z,10.10
2018-03-28T10:38:32.235Z,10.00
2018-03-28T10:41:01.378Z,10.10
2018-03-28T10:43:29.659Z,10.10
2018-03-28T10:45:57.936Z,10.10
2018-03-28T10:48:26.211Z,10.00
2018-03-28T10:50:54.492Z,10.20
2018-03-28T10:53:22.739Z,10.20
2018-03-28T10:55:51.766Z,10.20
2018-03-28T10:58:20.050Z,10.20
2018-03-28T11:00:48.317Z,10.10
2018-03-28T11:03:16.574Z,10.20
2018-03-28T11:05:45.620Z,10.30
2018-03-28T11:08:13.879Z,10.30
2018-03-28T11:10:42.122Z,10.50
2018-03-28T11:13:11.169Z,10.60
2018-03-28T11:15:39.424Z,10.70
2018-03-28T11:18:11.317Z,10.80
2018-03-28T11:20:41.561Z,10.90
2018-03-28T11:23:11.356Z,11.10
2018-03-28T11:25:39.599Z,11.20
2018-03-28T11:28:08.637Z,11.10
2018-03-28T11:30:36.886Z,11.10
2018-03-28T11:33:05.931Z,11.00
2018-03-28T11:35:34.214Z,11.00
2018-03-28T11:38:02.677Z,10.90
2018-03-28T11:40:30.996Z,10.80
2018-03-28T11:42:59.268Z,10.70
2018-03-28T11:45:27.522Z,10.60
2018-03-28T11:47:55.904Z,10.50
2018-03-28T11:50:24.193Z,10.50
2018-03-28T11:52:52.483Z,10.40
2018-03-28T11:55:20.731Z,10.50
2018-03-28T11:57:49.006Z,10.60
2018-03-28T12:00:21.778Z,10.60
2018-03-28T12:02:50.803Z,10.70
2018-03-28T12:05:19.109Z,10.70
2018-03-28T12:07:47.481Z,10.70
2018-03-28T12:10:15.754Z,10.80
2018-03-28T12:12:44.042Z,10.70
2018-03-28T12:15:12.323Z,10.80
2018-03-28T12:17:40.587Z,10.80
2018-03-28T12:20:08.879Z,10.80
2018-03-28T12:22:37.405Z,10.80
2018-03-28T12:25:05.666Z,11.10
2018-03-28T12:27:34.055Z,11.50
2018-03-28T12:30:02.379Z,11.90
2018-03-28T12:32:31.394Z,12.00
2018-03-28T12:34:59.703Z,12.00
2018-03-28T12:37:28.057Z,12.20
2018-03-28T12:39:56.305Z,12.20
2018-03-28T12:42:25.335Z,12.00
2018-03-28T12:44:53.644Z,12.00
2018-03-28T12:47:21.914Z,11.90
2018-03-28T12:49:50.206Z,11.80
2018-03-28T12:52:19.339Z,11.70
2018-03-28T12:54:47.429Z,11.70
2018-03-28T12:57:16.561Z,11.90
2018-03-28T12:59:44.844Z,11.90
2018-03-28T13:02:13.831Z,12.00
2018-03-28T13:04:42.127Z,12.00
2018-03-28T13:07:10.854Z,11.90
2018-03-28T13:09:40.261Z,11.90
2018-03-28T13:12:08.609Z,11.90
2018-03-28T13:14:36.871Z,11.90
2018-03-28T13:17:05.170Z,11.80
2018-03-28T13:19:33.414Z,11.80
2018-03-28T13:22:02.585Z,11.70
2018-03-28T13:24:30.999Z,11.70
2018-03-28T13:27:00.279Z,11.60
2018-03-28T13:29:28.684Z,11.50
2018-03-28T13:31:57.921Z,11.40
2018-03-28T13:34:26.349Z,11.40
2018-03-28T13:36:54.894Z,11.40
2018-03-28T13:39:23.189Z,11.30
2018-03-28T13:41:51.457Z,11.30
2018-03-28T13:44:19.750Z,11.20
2018-03-28T13:46:48.030Z,11.10
2018-03-28T13:49:16.346Z,11.10
2018-03-28T13:51:46.122Z,11.10
2018-03-28T13:54:14.409Z,11.10
2018-03-28T13:56:42.750Z,11.10
2018-03-28T13:59:10.968Z,11.10
2018-03-28T14:01:39.237Z,11.10
2018-03-28T14:04:07.491Z,11.10
2018-03-28T14:06:36.552Z,11.00
2018-03-28T14:09:04.806Z,11.00
2018-03-28T14:11:33.147Z,10.80
2018-03-28T14:14:01.340Z,10.70
2018-03-28T14:16:29.681Z,10.80
2018-03-28T14:18:59.467Z,10.70
2018-03-28T14:21:27.750Z,10.70
2018-03-28T14:23:56.023Z,10.60
2018-03-28T14:26:24.275Z,10.50
2018-03-28T14:28:52.590Z,10.50
2018-03-28T14:31:20.882Z,10.50
2018-03-28T14:33:49.151Z,10.40
2018-03-28T14:36:18.397Z,10.40
2018-03-28T14:38:47.440Z,10.30
2018-03-28T14:41:15.694Z,10.30
2018-03-28T14:43:43.972Z,10.30
2018-03-28T14:46:12.992Z,10.30
2018-03-28T14:48:41.265Z,10.20
2018-03-28T14:51:09.563Z,10.30
2018-03-28T14:53:37.854Z,10.30
2018-03-28T14:56:06.132Z,10.30
2018-03-28T14:58:34.411Z,10.20
2018-03-28T15:01:02.690Z,10.20
2018-03-28T15:03:30.962Z,10.10
2018-03-28T15:05:59.347Z,10.10
2018-03-28T15:08:27.621Z,10.10
2018-03-28T15:10:55.912Z,10.10
2018-03-28T15:13:24.179Z,10.00
2018-03-28T15:15:52.414Z,9.90
2018-03-28T15:18:20.669Z,9.90
2018-03-28T15:20:48.912Z,9.90
2018-03-28T15:23:17.212Z,9.80
2018-03-28T15:25:45.500Z,9.70
2018-03-28T15:28:14.601Z,9.60
2018-03-28T15:30:42.838Z,9.60
2018-03-28T15:33:11.857Z,9.70
2018-03-28T15:35:40.090Z,9.70
2018-03-28T15:38:08.432Z,9.80
2018-03-28T15:40:36.677Z,9.80
2018-03-28T15:43:05.762Z,9.90
2018-03-28T15:45:34.764Z,9.80
2018-03-28T15:48:03.000Z,9.80
2018-03-28T15:50:31.243Z,9.70
2018-03-28T15:52:59.480Z,9.70
2018-03-28T15:55:28.483Z,9.90
2018-03-28T15:57:57.496Z,9.80
2018-03-28T16:00:25.720Z,9.80
2018-03-28T16:02:53.976Z,9.80
2018-03-28T16:05:22.219Z,9.70
2018-03-28T16:07:50.465Z,9.70
2018-03-28T16:10:18.696Z,9.70
2018-03-28T16:12:46.948Z,9.70
2018-03-28T16:15:15.180Z,9.70
2018-03-28T16:17:43.429Z,9.70
2018-03-28T16:20:11.653Z,9.80
2018-03-28T16:22:40.485Z,9.80
2018-03-28T16:25:08.728Z,9.80
2018-03-28T16:27:37.000Z,9.70
2018-03-28T16:30:06.007Z,9.80
2018-03-28T16:32:34.280Z,9.70
2018-03-28T16:35:02.524Z,9.80
2018-03-28T16:37:30.760Z,9.70
2018-03-28T16:39:59.779Z,9.70
2018-03-28T16:42:28.040Z,9.80
2018-03-28T16:44:56.281Z,9.80
2018-03-28T16:47:24.564Z,9.90
2018-03-28T16:49:52.776Z,9.90
2018-03-28T16:52:21.020Z,9.90
2018-03-28T16:54:49.248Z,9.80
2018-03-28T16:57:17.535Z,9.90
2018-03-28T16:59:46.544Z,10.00
2018-03-28T17:02:14.850Z,10.00
2018-03-28T17:04:43.128Z,10.00
2018-03-28T17:07:11.379Z,10.00
2018-03-28T17:09:39.660Z,10.00
2018-03-28T17:12:07.875Z,10.00
2018-03-28T17:14:36.124Z,10.00
2018-03-28T17:17:04.361Z,10.00
2018-03-28T17:19:36.710Z,10.00
2018-03-28T17:22:05.002Z,10.00
2018-03-28T17:24:33.508Z,10.00
2018-03-28T17:27:02.525Z,10.00
2018-03-28T17:29:31.688Z,10.00
2018-03-28T17:32:01.609Z,10.00
2018-03-28T17:34:30.637Z,9.90
2018-03-28T17:36:58.880Z,9.90
2018-03-28T17:39:28.799Z,9.90
2018-03-28T17:41:57.804Z,9.90
2018-03-28T17:44:26.961Z,9.80
2018-03-28T17:46:55.274Z,9.80
2018-03-28T17:49:23.641Z,9.70
2018-03-28T17:51:52.661Z,9.80
2018-03-28T17:54:20.904Z,9.80
2018-03-28T17:56:51.816Z,9.80
2018-03-28T17:59:26.529Z,9.70
2018-03-28T18:01:54.765Z,9.80
2018-03-28T18:04:23.013Z,9.90
2018-03-28T18:06:51.289Z,9.90
2018-03-28T18:09:19.517Z,9.90
2018-03-28T18:11:47.748Z,10.00
2018-03-28T18:14:16.808Z,10.00
2018-03-28T18:16:45.044Z,10.00
2018-03-28T18:19:13.304Z,10.00
2018-03-28T18:21:41.560Z,10.10
2018-03-28T18:24:09.809Z,10.10
2018-03-28T18:26:38.072Z,10.20
2018-03-28T18:29:06.337Z,10.20
2018-03-28T18:31:34.584Z,10.20
2018-03-28T18:34:03.610Z,10.40
2018-03-28T18:36:31.851Z,10.40
2018-03-28T18:39:00.868Z,10.50
2018-03-28T18:41:29.138Z,10.50
2018-03-28T18:43:57.384Z,10.40
2018-03-28T18:46:25.649Z,10.50
2018-03-28T18:48:53.891Z,10.50
2018-03-28T18:51:22.168Z,10.50
2018-03-28T18:53:50.408Z,10.30
2018-03-28T18:56:19.430Z,10.50
2018-03-28T18:58:47.676Z,10.40
2018-03-28T19:01:15.935Z,10.60
2018-03-28T19:03:44.183Z,10.60
2018-03-28T19:06:12.464Z,10.60
2018-03-28T19:08:40.724Z,10.70
2018-03-28T19:11:08.979Z,10.70
2018-03-28T19:13:37.298Z,10.70
2018-03-28T19:16:06.285Z,10.60
2018-03-28T19:18:34.944Z,10.60
2018-03-28T19:21:03.216Z,10.50
2018-03-28T19:23:31.467Z,10.60
2018-03-28T19:26:00.488Z,10.50
2018-03-28T19:28:28.737Z,10.50
2018-03-28T19:30:57.765Z,10.50
2018-03-28T19:33:26.010Z,10.50
2018-03-28T19:35:55.088Z,10.40
2018-03-28T19:38:24.114Z,10.40
2018-03-28T19:40:52.371Z,10.40
2018-03-28T19:43:21.401Z,10.30
2018-03-28T19:45:49.661Z,10.40
2018-03-28T19:48:17.920Z,10.30
2018-03-28T19:50:46.940Z,10.30
2018-03-28T19:53:15.214Z,10.20
2018-03-28T19:55:46.404Z,10.30
2018-03-28T19:58:14.671Z,10.30
2018-03-28T20:00:42.912Z,10.20
2018-03-28T20:03:12.095Z,10.20
2018-03-28T20:05:40.336Z,10.20
2018-03-28T20:08:08.600Z,10.30
2018-03-28T20:10:36.859Z,10.30
2018-03-28T20:13:05.123Z,10.30
2018-03-28T20:15:33.372Z,10.30
2018-03-28T20:18:02.392Z,10.30
2018-03-28T20:20:30.649Z,10.30
2018-03-28T20:22:59.638Z,10.20
2018-03-28T20:25:27.908Z,10.20
2018-03-28T20:27:57.389Z,10.00
2018-03-28T20:30:25.648Z,10.00
2018-03-28T20:32:53.868Z,9.90
2018-03-28T20:35:22.893Z,10.00
2018-03-28T20:37:51.131Z,9.90
2018-03-28T20:40:20.144Z,10.00
2018-03-28T20:42:48.393Z,10.00
2018-03-28T20:45:16.617Z,9.90
2018-03-28T20:47:44.859Z,9.70
2018-03-28T20:50:13.871Z,9.60
2018-03-28T20:52:42.096Z,9.60
2018-03-28T20:55:10.607Z,9.60
2018-03-28T20:57:47.877Z,9.60
2018-03-28T21:00:16.733Z,9.60
2018-03-28T21:02:44.952Z,9.60
2018-03-28T21:05:13.958Z,9.70
2018-03-28T21:07:43.870Z,9.70
2018-03-28T21:10:12.883Z,9.60
2018-03-28T21:12:41.302Z,9.60
2018-03-28T21:15:09.597Z,9.60
2018-03-28T21:17:37.836Z,9.50
2018-03-28T21:20:06.093Z,9.40
2018-03-28T21:22:34.322Z,9.40
2018-03-28T21:25:02.557Z,9.40
2018-03-28T21:27:30.784Z,9.30
2018-03-28T21:29:59.034Z,9.30
2018-03-28T21:32:27.269Z,9.30
2018-03-28T21:34:55.488Z,9.30
2018-03-28T21:37:23.747Z,9.30
2018-03-28T21:39:51.973Z,9.40
2018-03-28T21:42:20.988Z,9.50
2018-03-28T21:44:49.976Z,9.50
2018-03-28T21:47:18.228Z,9.40
2018-03-28T21:49:46.460Z,9.40
2018-03-28T21:52:14.703Z,9.30
2018-03-28T21:54:42.927Z,9.20
2018-03-28T21:57:11.166Z,9.10
2018-03-28T21:59:39.832Z,8.90
2018-03-28T22:02:08.840Z,8.70
2018-03-28T22:04:37.083Z,8.70
2018-03-28T22:07:05.460Z,8.60
2018-03-28T22:09:33.707Z,8.50
2018-03-28T22:12:02.668Z,8.40
2018-03-28T22:14:30.904Z,8.40
2018-03-28T22:16:59.142Z,8.40
2018-03-28T22:19:27.367Z,8.30
2018-03-28T22:21:56.375Z,8.20
2018-03-28T22:24:25.373Z,8.00
2018-03-28T22:26:53.639Z,8.00
2018-03-28T22:29:22.865Z,8.00
2018-03-28T22:31:51.832Z,7.90
2018-03-28T22:34:20.086Z,7.90
2018-03-28T22:36:48.312Z,7.80
2018-03-28T22:39:16.570Z,7.90
2018-03-28T22:41:44.790Z,7.70
2018-03-28T22:44:13.040Z,7.70
2018-03-28T22:46:41.280Z,7.60
2018-03-28T22:49:10.306Z,7.60
2018-03-28T22:51:38.527Z,7.60
2018-03-28T22:54:06.771Z,7.70
2018-03-28T22:56:34.998Z,7.60
2018-03-28T22:59:03.940Z,7.60
2018-03-28T23:01:32.171Z,7.60
2018-03-28T23:04:01.183Z,7.60
2018-03-28T23:06:29.410Z,7.60
2018-03-28T23:08:57.639Z,7.50
2018-03-28T23:11:25.859Z,7.60
2018-03-28T23:13:54.230Z,7.50
2018-03-28T23:16:22.447Z,7.40
2018-03-28T23:18:51.453Z,7.50
2018-03-28T23:21:20.456Z,7.50
2018-03-28T23:23:48.684Z,7.50
2018-03-28T23:26:16.915Z,7.50
2018-03-28T23:28:45.157Z,7.60
2018-03-28T23:31:14.171Z,7.40
2018-03-28T23:33:43.164Z,7.40
2018-03-28T23:36:11.418Z,7.40
2018-03-28T23:38:39.792Z,7.50
2018-03-28T23:41:08.032Z,7.40
2018-03-28T23:43:36.251Z,7.40
2018-03-28T23:46:05.260Z,7.30
2018-03-28T23:48:34.266Z,7.30
2018-03-28T23:51:02.502Z,7.30
2018-03-28T23:53:30.739Z,7.30
2018-03-28T23:55:58.975Z,7.30
2018-03-28T23:58:27.964Z,7.20
